createdAt,value
2022-10-04T00:02:11.864Z,12.21
2022-10-04T00:17:18.878Z,11.98
2022-10-04T00:32:28.038Z,11.79
2022-10-04T00:47:31.785Z,11.62
2022-10-04T01:02:33.732Z,11.42
2022-10-04T01:17:35.310Z,11.26
2022-10-04T01:32:37.907Z,11.50
2022-10-04T01:47:49.958Z,11.56
2022-10-04T02:02:51.540Z,11.17
2022-10-04T02:17:55.378Z,11.10
2022-10-04T02:33:03.217Z,11.27
2022-10-04T02:48:17.731Z,10.95
2022-10-04T03:03:23.020Z,11.33
2022-10-04T03:18:24.537Z,11.00
2022-10-04T03:33:27.012Z,10.85
2022-10-04T03:48:31.154Z,11.03
2022-10-04T04:03:38.016Z,11.05
2022-10-04T04:18:43.323Z,10.82
2022-10-04T04:34:06.461Z,11.00
2022-10-04T04:49:07.987Z,11.29
2022-10-04T05:04:09.404Z,11.68
2022-10-04T05:19:36.962Z,12.39
2022-10-04T05:34:40.168Z,11.86
2022-10-04T05:49:46.630Z,14.37
2022-10-04T06:05:07.410Z,12.44
2022-10-04T06:20:29.080Z,15.73
2022-10-04T06:35:30.885Z,17.42
2022-10-04T06:50:47.553Z,15.59
2022-10-04T07:05:54.208Z,14.89
2022-10-04T07:21:02.816Z,15.41
2022-10-04T07:36:08.048Z,15.96
2022-10-04T07:51:10.017Z,15.09
2022-10-04T08:06:11.931Z,14.82
2022-10-04T08:21:26.860Z,14.56
2022-10-04T08:36:42.577Z,17.23
2022-10-04T08:52:02.975Z,16.83
2022-10-04T09:07:16.816Z,17.10
2022-10-04T09:22:22.551Z,19.56
2022-10-04T09:37:42.535Z,19.60
2022-10-04T09:53:13.709Z,21.28
2022-10-04T10:08:22.032Z,20.43
2022-10-04T10:23:38.577Z,18.33
2022-10-04T10:38:49.169Z,20.57
2022-10-04T10:54:10.556Z,18.54
2022-10-04T11:09:28.305Z,16.92
2022-10-04T11:24:29.757Z,17.25
2022-10-04T11:39:38.624Z,16.03
2022-10-04T11:54:45.793Z,17.02
2022-10-04T12:09:56.329Z,17.64
2022-10-04T12:25:18.837Z,17.48
2022-10-04T12:40:39.013Z,17.57
2022-10-04T12:56:03.798Z,16.88
2022-10-04T13:11:20.748Z,17.72
2022-10-04T13:26:28.261Z,17.81
2022-10-04T13:41:32.696Z,17.84
2022-10-04T13:56:52.839Z,17.67
2022-10-04T14:12:07.442Z,16.19
2022-10-04T14:27:09.071Z,15.95
2022-10-04T14:42:24.341Z,15.71
2022-10-04T14:57:42.668Z,14.62
2022-10-04T15:13:11.061Z,14.39
2022-10-04T15:28:13.237Z,14.26
2022-10-04T15:43:24.844Z,14.48
2022-10-04T15:58:42.477Z,13.43
2022-10-04T16:13:46.783Z,13.43
2022-10-04T16:29:00.649Z,12.78
2022-10-04T16:44:03.100Z,13.03
2022-10-04T16:59:04.623Z,13.42
2022-10-04T17:14:24.909Z,13.03
2022-10-04T17:29:32.527Z,13.30
2022-10-04T17:44:34.290Z,12.93
2022-10-04T17:59:41.236Z,12.74
2022-10-04T18:14:50.914Z,12.87
2022-10-04T18:30:00.597Z,13.15
2022-10-04T18:45:20.461Z,12.72
2022-10-04T19:00:40.929Z,12.44
2022-10-04T19:16:03.689Z,12.74
2022-10-04T19:31:05.291Z,11.90
2022-10-04T19:46:06.836Z,12.02
2022-10-04T20:01:10.246Z,11.92
2022-10-04T20:16:11.850Z,11.83
2022-10-04T20:31:25.586Z,11.83
2022-10-04T20:46:29.117Z,11.87
2022-10-04T21:01:36.978Z,11.73
2022-10-04T21:16:40.147Z,11.85
2022-10-04T21:31:41.725Z,11.78
2022-10-04T21:46:43.471Z,11.47
2022-10-04T22:16:09.056Z,11.54
2022-10-04T22:31:15.060Z,11.24
2022-10-04T22:46:19.435Z,11.70
2022-10-04T23:01:20.942Z,11.66
2022-10-04T23:16:23.216Z,11.92
2022-10-04T23:31:26.080Z,11.43
2022-10-04T23:46:36.866Z,11.33
